createdAt,value
2024-03-16T00:00:23.630Z,2.80
2024-03-16T00:03:11.614Z,3.40
2024-03-16T00:05:40.039Z,3.35
2024-03-16T00:08:07.847Z,3.60
2024-03-16T00:10:36.051Z,3.03
2024-03-16T00:13:03.515Z,4.22
2024-03-16T00:15:31.439Z,3.38
2024-03-16T00:17:59.004Z,3.60
2024-03-16T00:20:26.860Z,3.83
2024-03-16T00:22:54.287Z,2.97
2024-03-16T00:25:22.012Z,3.53
2024-03-16T00:27:49.605Z,3.45
2024-03-16T00:30:17.542Z,3.03
2024-03-16T00:32:45.251Z,3.47
2024-03-16T00:35:13.069Z,3.67
2024-03-16T00:37:40.517Z,3.08
2024-03-16T00:40:09.294Z,3.17
2024-03-16T00:42:36.907Z,3.60
2024-03-16T00:45:05.402Z,3.53
2024-03-16T00:47:32.893Z,2.83
2024-03-16T00:50:00.679Z,3.25
2024-03-16T00:52:28.170Z,3.25
2024-03-16T00:54:56.050Z,3.70
2024-03-16T00:57:23.698Z,3.00
2024-03-16T00:59:51.641Z,2.83
2024-03-16T01:02:19.091Z,3.75
2024-03-16T01:04:47.384Z,3.40
2024-03-16T01:07:14.769Z,4.32
2024-03-16T01:09:43.029Z,3.00
2024-03-16T01:12:10.525Z,2.90
2024-03-16T01:14:38.344Z,3.20
2024-03-16T01:17:05.956Z,3.83
2024-03-16T01:19:34.065Z,3.03
2024-03-16T01:22:01.575Z,3.55
2024-03-16T01:24:29.846Z,2.67
2024-03-16T01:26:57.325Z,2.42
2024-03-16T01:29:25.517Z,3.15
2024-03-16T01:31:52.918Z,2.75
2024-03-16T01:34:20.765Z,3.08
2024-03-16T01:36:49.279Z,2.03
2024-03-16T01:39:17.156Z,2.97
2024-03-16T01:41:44.521Z,3.65
2024-03-16T01:44:12.716Z,3.25
2024-03-16T01:46:40.124Z,2.58
2024-03-16T01:49:08.059Z,3.28
2024-03-16T01:51:36.399Z,3.28
2024-03-16T01:54:04.776Z,2.67
2024-03-16T01:56:32.348Z,3.38
2024-03-16T01:59:00.193Z,3.30
2024-03-16T02:01:27.700Z,2.63
2024-03-16T02:03:55.624Z,3.22
2024-03-16T02:06:23.090Z,2.88
2024-03-16T02:08:51.004Z,3.03
2024-03-16T02:11:18.541Z,2.63
2024-03-16T02:13:46.335Z,3.58
2024-03-16T02:16:13.831Z,2.95
2024-03-16T02:18:41.811Z,2.90
2024-03-16T02:21:09.226Z,2.58
2024-03-16T02:23:37.229Z,2.95
2024-03-16T02:26:04.754Z,2.83
2024-03-16T02:28:32.825Z,4.18
2024-03-16T02:31:00.387Z,2.95
2024-03-16T02:33:28.115Z,3.28
2024-03-16T02:35:55.575Z,3.22
2024-03-16T02:38:23.316Z,2.40
2024-03-16T02:40:50.746Z,3.00
2024-03-16T02:43:18.587Z,3.03
2024-03-16T02:45:46.070Z,2.38
2024-03-16T02:48:14.068Z,2.40
2024-03-16T02:50:41.422Z,3.10
2024-03-16T02:53:09.227Z,3.53
2024-03-16T02:55:36.663Z,3.22
2024-03-16T02:58:04.637Z,2.80
2024-03-16T03:00:32.147Z,3.08
2024-03-16T03:02:59.811Z,2.38
2024-03-16T03:05:27.323Z,2.88
2024-03-16T03:07:55.158Z,2.90
2024-03-16T03:10:25.591Z,3.05
2024-03-16T03:12:53.516Z,3.28
2024-03-16T03:15:20.884Z,2.65
2024-03-16T03:17:48.741Z,2.80
2024-03-16T03:20:16.270Z,3.88
2024-03-16T03:22:43.961Z,3.85
2024-03-16T03:25:11.983Z,2.55
2024-03-16T03:27:39.952Z,2.58
2024-03-16T03:30:07.970Z,2.72
2024-03-16T03:32:35.746Z,2.35
2024-03-16T03:35:03.115Z,2.60
2024-03-16T03:37:30.998Z,2.38
2024-03-16T03:39:58.747Z,3.03
2024-03-16T03:42:27.058Z,2.45
2024-03-16T03:44:54.664Z,2.67
2024-03-16T03:47:22.385Z,2.20
2024-03-16T03:49:49.892Z,2.42
2024-03-16T03:52:17.793Z,3.08
2024-03-16T03:54:45.051Z,2.40
2024-03-16T03:57:13.108Z,2.70
2024-03-16T03:59:40.515Z,2.30
2024-03-16T04:02:08.383Z,3.25
2024-03-16T04:04:35.868Z,2.33
2024-03-16T04:07:03.542Z,2.75
2024-03-16T04:09:30.969Z,3.25
2024-03-16T04:11:58.680Z,2.58
2024-03-16T04:14:26.087Z,2.70
2024-03-16T04:16:53.837Z,2.20
2024-03-16T04:19:21.360Z,3.00
2024-03-16T04:21:49.149Z,2.72
2024-03-16T04:24:16.554Z,2.22
2024-03-16T04:26:44.752Z,2.70
2024-03-16T04:29:12.081Z,2.90
2024-03-16T04:31:40.046Z,2.28
2024-03-16T04:34:10.483Z,3.22
2024-03-16T04:36:38.257Z,2.33
2024-03-16T04:39:05.567Z,1.83
2024-03-16T04:41:34.576Z,2.67
2024-03-16T04:44:02.232Z,2.95
2024-03-16T04:46:30.530Z,2.95
2024-03-16T04:48:58.121Z,2.00
2024-03-16T04:51:25.886Z,2.30
2024-03-16T04:53:53.464Z,2.03
2024-03-16T04:56:21.339Z,2.67
2024-03-16T04:58:48.898Z,1.80
2024-03-16T05:01:17.427Z,2.42
2024-03-16T05:03:45.031Z,2.10
2024-03-16T05:06:12.830Z,2.78
2024-03-16T05:08:40.268Z,2.30
2024-03-16T05:11:08.128Z,2.45
2024-03-16T05:13:36.080Z,1.38
2024-03-16T05:16:07.405Z,2.65
2024-03-16T05:18:34.877Z,2.17
2024-03-16T05:21:02.761Z,1.98
2024-03-16T05:23:33.326Z,1.65
2024-03-16T05:26:01.482Z,2.42
2024-03-16T05:28:28.954Z,2.22
2024-03-16T05:30:57.041Z,3.10
2024-03-16T05:33:24.529Z,1.63
2024-03-16T05:35:52.482Z,2.25
2024-03-16T05:38:19.892Z,2.70
2024-03-16T05:40:48.181Z,3.08
2024-03-16T05:43:15.852Z,3.33
2024-03-16T05:45:43.763Z,2.95
2024-03-16T05:48:11.072Z,2.75
2024-03-16T05:50:39.473Z,2.83
2024-03-16T05:53:06.930Z,2.90
2024-03-16T05:55:34.965Z,2.42
2024-03-16T05:58:02.652Z,2.45
2024-03-16T06:00:30.414Z,2.97
2024-03-16T06:03:00.940Z,3.08
2024-03-16T06:05:29.075Z,2.67
2024-03-16T06:07:56.618Z,2.72
2024-03-16T06:10:24.600Z,2.60
2024-03-16T06:12:52.134Z,3.05
2024-03-16T06:15:20.064Z,3.22
2024-03-16T06:17:47.562Z,3.33
2024-03-16T06:20:15.629Z,1.92
2024-03-16T06:22:42.963Z,2.70
2024-03-16T06:25:11.450Z,2.40
2024-03-16T06:27:39.139Z,2.85
2024-03-16T06:30:07.638Z,2.72
2024-03-16T06:32:35.576Z,2.65
2024-03-16T06:35:03.698Z,2.40
2024-03-16T06:37:31.386Z,3.03
2024-03-16T06:39:59.750Z,2.55
2024-03-16T06:42:27.329Z,3.30
2024-03-16T06:44:55.151Z,2.20
2024-03-16T06:47:22.584Z,3.15
2024-03-16T06:49:50.607Z,2.97
2024-03-16T06:52:18.032Z,2.60
2024-03-16T06:54:46.117Z,2.10
2024-03-16T06:57:13.944Z,3.13
2024-03-16T06:59:42.363Z,2.67
2024-03-16T07:02:11.785Z,2.25
2024-03-16T07:04:41.509Z,2.75
2024-03-16T07:07:09.193Z,3.97
2024-03-16T07:09:38.382Z,3.22
2024-03-16T07:12:09.970Z,3.38
2024-03-16T07:14:38.121Z,1.95
2024-03-16T07:17:05.443Z,3.33
2024-03-16T07:19:33.563Z,3.42
2024-03-16T07:22:01.230Z,2.35
2024-03-16T07:24:29.376Z,2.65
2024-03-16T07:26:56.961Z,2.47
2024-03-16T07:29:25.483Z,2.40
2024-03-16T07:31:53.511Z,2.63
2024-03-16T07:34:21.749Z,3.15
2024-03-16T07:36:49.774Z,2.63
2024-03-16T07:39:17.978Z,2.70
2024-03-16T07:41:45.544Z,2.30
2024-03-16T07:44:14.034Z,1.95
2024-03-16T07:46:41.285Z,1.80
2024-03-16T07:49:10.278Z,2.25
2024-03-16T07:51:38.175Z,2.20
2024-03-16T07:54:07.285Z,2.55
2024-03-16T07:56:35.607Z,2.20
2024-03-16T07:59:08.658Z,1.80
2024-03-16T08:01:36.298Z,1.73
2024-03-16T08:04:04.722Z,2.30
2024-03-16T08:06:32.461Z,2.05
2024-03-16T08:09:00.750Z,2.80
2024-03-16T08:11:28.379Z,2.25
2024-03-16T08:13:56.762Z,2.70
2024-03-16T08:16:24.334Z,2.53
2024-03-16T08:18:52.416Z,2.55
2024-03-16T08:21:20.037Z,2.78
2024-03-16T08:23:48.018Z,2.03
2024-03-16T08:26:15.932Z,3.08
2024-03-16T08:28:44.268Z,2.42
2024-03-16T08:31:12.229Z,2.65
2024-03-16T08:33:40.619Z,2.08
2024-03-16T08:36:08.412Z,2.78
2024-03-16T08:38:36.303Z,3.13
2024-03-16T08:41:06.198Z,2.33
2024-03-16T08:43:37.204Z,1.70
2024-03-16T08:46:05.468Z,1.75
2024-03-16T08:48:33.575Z,1.75
2024-03-16T08:51:01.038Z,1.75
2024-03-16T08:53:32.067Z,1.90
2024-03-16T08:55:59.979Z,1.60
2024-03-16T08:58:28.419Z,1.77
2024-03-16T09:00:56.241Z,1.17
2024-03-16T09:03:24.541Z,2.05
2024-03-16T09:05:52.308Z,1.67
2024-03-16T09:08:20.617Z,1.23
2024-03-16T09:10:51.238Z,1.50
2024-03-16T09:13:20.195Z,1.58
2024-03-16T09:15:48.021Z,1.88
2024-03-16T09:18:25.636Z,0.88
2024-03-16T09:20:53.202Z,1.60
2024-03-16T09:23:22.377Z,1.65
2024-03-16T09:25:56.777Z,1.38
2024-03-16T09:31:07.254Z,0.85
2024-03-16T09:33:35.456Z,0.60
2024-03-16T09:36:03.085Z,0.70
2024-03-16T09:38:30.932Z,0.70
2024-03-16T09:40:58.459Z,0.55
